SBSM

Details ICAO SBSM (RIA)
Name Santa Maria
Region Brazil
Timezone America/Sao_Paulo (UTC-3.0)
Plans Departing 52
Arriving 40
Stats Elevation 287 ft / 87 m (AMSL)
Location -29.712352° -53.689105°
Runways 2
Magnetic Variation 15.347° W
Sunrise 2018-05-24 10:18:53 UTC / 2018-05-24 07:18:53 Local
Sunset 2018-05-24 20:47:13 UTC / 2018-05-24 17:47:13 Local
Advertisement - Login to hide

Runways

ID Width Length Bearing (true) Bearing (mag) Surface Threshold Offset Overrun Length
02 100 ft / 30 m 5,806 ft / 1,770 m 2.56° 17.91° Asphalt 0 ft / 0 m 185 ft / 56 m
11 148 ft / 45 m 8,836 ft / 2,693 m 93.44° 108.79° Concrete 0 ft / 0 m 1,140 ft / 347 m
20 100 ft / 30 m 5,806 ft / 1,770 m 182.56° 197.91° Asphalt 1,170 ft / 357 m 0 ft / 0 m
29 148 ft / 45 m 8,836 ft / 2,693 m 273.43° 288.78° Concrete 0 ft / 0 m 1,140 ft / 347 m

Map

Weather


0- 5 10 15 20 25 30 35+ Temperature / ° C

Clouds and Precipitation
Forecast for 2018-05-24 12:00 UTC. Updated 3 hours ago

Ground ~20,000 ft ~40,000 ft Winds

METAR

SBSM 241400Z 13003KT 080V180 CAVOK 13/08 Q1027

TAF

TAF SBSM 240945Z 2412/2424 00000KT CAVOK TN07/2412Z TX17/2417Z RMK PEB

Frequencies

Tower 118.85 MHz TWR
Approach 119.35 MHz APP
Tower 118.30 MHz TWR
Approach 121.35 MHz APP
Warning: Do not use this data for real-world aviation or navigation. No guarantee of current accuracy is given.